sensor_id;sensor_type;location;lat;lon;timestamp;temperature;humidity
74968;SHT30;63523;51.880;12.630;2023-02-28T00:00:31;1.06;74.67
74968;SHT30;63523;51.880;12.630;2023-02-28T00:02:57;1.04;74.96
74968;SHT30;63523;51.880;12.630;2023-02-28T00:05:24;1.01;75.19
74968;SHT30;63523;51.880;12.630;2023-02-28T00:07:50;0.97;75.04
74968;SHT30;63523;51.880;12.630;2023-02-28T00:10:21;0.97;74.75
74968;SHT30;63523;51.880;12.630;2023-02-28T00:12:52;0.95;74.65
74968;SHT30;63523;51.880;12.630;2023-02-28T00:15:18;0.95;74.27
74968;SHT30;63523;51.880;12.630;2023-02-28T00:17:44;0.95;72.53
74968;SHT30;63523;51.880;12.630;2023-02-28T00:20:10;0.99;72.66
74968;SHT30;63523;51.880;12.630;2023-02-28T00:22:45;0.99;74.20
74968;SHT30;63523;51.880;12.630;2023-02-28T00:25:13;1.01;74.08
74968;SHT30;63523;51.880;12.630;2023-02-28T00:27:39;1.03;73.48
74968;SHT30;63523;51.880;12.630;2023-02-28T00:30:07;1.01;73.25
74968;SHT30;63523;51.880;12.630;2023-02-28T00:32:33;1.01;75.29
74968;SHT30;63523;51.880;12.630;2023-02-28T00:34:59;1.04;75.03
74968;SHT30;63523;51.880;12.630;2023-02-28T00:37:25;1.01;73.95
74968;SHT30;63523;51.880;12.630;2023-02-28T00:39:51;1.04;73.46
74968;SHT30;63523;51.880;12.630;2023-02-28T00:42:17;1.06;74.10
74968;SHT30;63523;51.880;12.630;2023-02-28T00:44:42;1.17;73.12
74968;SHT30;63523;51.880;12.630;2023-02-28T00:47:11;1.24;73.47
74968;SHT30;63523;51.880;12.630;2023-02-28T00:49:36;1.30;72.73
74968;SHT30;63523;51.880;12.630;2023-02-28T00:52:02;1.28;72.44
74968;SHT30;63523;51.880;12.630;2023-02-28T00:54:28;1.28;71.97
74968;SHT30;63523;51.880;12.630;2023-02-28T00:56:53;1.26;72.56
74968;SHT30;63523;51.880;12.630;2023-02-28T00:59:19;1.24;73.02
74968;SHT30;63523;51.880;12.630;2023-02-28T01:01:46;1.22;73.19
74968;SHT30;63523;51.880;12.630;2023-02-28T01:04:12;1.19;73.51
74968;SHT30;63523;51.880;12.630;2023-02-28T01:06:37;1.14;74.13
74968;SHT30;63523;51.880;12.630;2023-02-28T01:09:04;1.12;74.02
74968;SHT30;63523;51.880;12.630;2023-02-28T01:11:30;1.12;74.63
74968;SHT30;63523;51.880;12.630;2023-02-28T01:13:56;1.14;75.26
74968;SHT30;63523;51.880;12.630;2023-02-28T01:16:22;1.19;75.02
74968;SHT30;63523;51.880;12.630;2023-02-28T01:18:48;1.22;74.80
74968;SHT30;63523;51.880;12.630;2023-02-28T01:21:16;1.20;73.37
74968;SHT30;63523;51.880;12.630;2023-02-28T01:23:42;1.22;73.06
74968;SHT30;63523;51.880;12.630;2023-02-28T01:26:18;1.19;73.42
74968;SHT30;63523;51.880;12.630;2023-02-28T01:28:45;1.20;73.79
74968;SHT30;63523;51.880;12.630;2023-02-28T01:31:11;1.13;74.01
74968;SHT30;63523;51.880;12.630;2023-02-28T01:33:37;1.08;74.20
74968;SHT30;63523;51.880;12.630;2023-02-28T01:36:05;1.04;74.53
74968;SHT30;63523;51.880;12.630;2023-02-28T01:38:31;0.99;75.29
74968;SHT30;63523;51.880;12.630;2023-02-28T01:40:57;0.95;75.45
74968;SHT30;63523;51.880;12.630;2023-02-28T01:43:25;0.88;75.79
74968;SHT30;63523;51.880;12.630;2023-02-28T01:45:52;0.86;75.58
74968;SHT30;63523;51.880;12.630;2023-02-28T01:48:19;0.85;75.89
74968;SHT30;63523;51.880;12.630;2023-02-28T01:50:47;0.86;75.69
74968;SHT30;63523;51.880;12.630;2023-02-28T01:53:17;0.90;75.87
74968;SHT30;63523;51.880;12.630;2023-02-28T01:55:47;0.92;75.69
74968;SHT30;63523;51.880;12.630;2023-02-28T01:58:15;0.93;75.59
74968;SHT30;63523;51.880;12.630;2023-02-28T02:00:41;0.95;75.47
74968;SHT30;63523;51.880;12.630;2023-02-28T02:03:13;0.89;76.27
74968;SHT30;63523;51.880;12.630;2023-02-28T02:05:40;0.88;76.34
74968;SHT30;63523;51.880;12.630;2023-02-28T02:08:12;0.75;76.65
74968;SHT30;63523;51.880;12.630;2023-02-28T02:13:26;0.59;77.96
74968;SHT30;63523;51.880;12.630;2023-02-28T02:18:46;0.55;77.16
74968;SHT30;63523;51.880;12.630;2023-02-28T02:24:29;0.55;77.87
74968;SHT30;63523;51.880;12.630;2023-02-28T02:27:20;0.48;77.89
74968;SHT30;63523;51.880;12.630;2023-02-28T02:33:05;0.33;77.74
74968;SHT30;63523;51.880;12.630;2023-02-28T02:35:47;0.27;78.25
74968;SHT30;63523;51.880;12.630;2023-02-28T02:44:31;0.21;78.58
74968;SHT30;63523;51.880;12.630;2023-02-28T02:47:09;0.11;79.28
74968;SHT30;63523;51.880;12.630;2023-02-28T02:49:36;0.05;79.44
74968;SHT30;63523;51.880;12.630;2023-02-28T02:52:06;0.00;79.56
74968;SHT30;63523;51.880;12.630;2023-02-28T02:54:36;-0.05;79.69
74968;SHT30;63523;51.880;12.630;2023-02-28T02:57:13;-0.10;80.11
74968;SHT30;63523;51.880;12.630;2023-02-28T02:59:41;-0.11;80.67
74968;SHT30;63523;51.880;12.630;2023-02-28T03:02:10;-0.17;80.29
74968;SHT30;63523;51.880;12.630;2023-02-28T03:04:46;-0.22;80.32
74968;SHT30;63523;51.880;12.630;2023-02-28T03:07:13;-0.21;81.03
74968;SHT30;63523;51.880;12.630;2023-02-28T03:09:39;-0.10;79.12
74968;SHT30;63523;51.880;12.630;2023-02-28T03:19:59;-0.15;78.56
74968;SHT30;63523;51.880;12.630;2023-02-28T03:25:20;-0.18;77.25
74968;SHT30;63523;51.880;12.630;2023-02-28T03:30:54;-0.22;78.57
74968;SHT30;63523;51.880;12.630;2023-02-28T03:33:30;-0.26;76.70
74968;SHT30;63523;51.880;12.630;2023-02-28T03:36:08;-0.28;77.87
74968;SHT30;63523;51.880;12.630;2023-02-28T03:38:36;-0.33;78.35
74968;SHT30;63523;51.880;12.630;2023-02-28T03:41:11;-0.39;78.83
74968;SHT30;63523;51.880;12.630;2023-02-28T03:43:42;-0.50;79.69
74968;SHT30;63523;51.880;12.630;2023-02-28T03:46:10;-0.60;79.87
74968;SHT30;63523;51.880;12.630;2023-02-28T03:48:43;-0.70;80.28
74968;SHT30;63523;51.880;12.630;2023-02-28T03:51:10;-0.76;79.99
74968;SHT30;63523;51.880;12.630;2023-02-28T03:53:42;-0.87;80.36
74968;SHT30;63523;51.880;12.630;2023-02-28T03:56:18;-0.94;80.65
74968;SHT30;63523;51.880;12.630;2023-02-28T03:58:49;-1.03;80.71
74968;SHT30;63523;51.880;12.630;2023-02-28T04:01:22;-1.07;81.13
74968;SHT30;63523;51.880;12.630;2023-02-28T04:03:50;-1.18;81.05
74968;SHT30;63523;51.880;12.630;2023-02-28T04:06:18;-1.09;80.53
74968;SHT30;63523;51.880;12.630;2023-02-28T04:08:45;-1.16;80.59
74968;SHT30;63523;51.880;12.630;2023-02-28T04:11:41;-1.24;80.64
74968;SHT30;63523;51.880;12.630;2023-02-28T04:14:08;-1.31;80.29
74968;SHT30;63523;51.880;12.630;2023-02-28T04:16:39;-1.27;80.43
74968;SHT30;63523;51.880;12.630;2023-02-28T04:19:07;-1.14;80.04
74968;SHT30;63523;51.880;12.630;2023-02-28T04:21:42;-1.08;80.15
74968;SHT30;63523;51.880;12.630;2023-02-28T04:24:13;-1.04;80.07
74968;SHT30;63523;51.880;12.630;2023-02-28T04:26:44;-0.90;80.19
74968;SHT30;63523;51.880;12.630;2023-02-28T04:29:11;-0.91;79.57
74968;SHT30;63523;51.880;12.630;2023-02-28T04:31:38;-0.97;79.63
74968;SHT30;63523;51.880;12.630;2023-02-28T04:34:03;-0.91;80.05
74968;SHT30;63523;51.880;12.630;2023-02-28T04:36:29;-1.01;80.17
74968;SHT30;63523;51.880;12.630;2023-02-28T04:38:54;-1.08;80.03
74968;SHT30;63523;51.880;12.630;2023-02-28T04:41:21;-1.19;80.04
74968;SHT30;63523;51.880;12.630;2023-02-28T04:43:46;-1.34;80.00
74968;SHT30;63523;51.880;12.630;2023-02-28T04:46:12;-1.40;80.05
74968;SHT30;63523;51.880;12.630;2023-02-28T04:48:39;-1.39;80.35
74968;SHT30;63523;51.880;12.630;2023-02-28T04:51:09;-1.21;79.36
74968;SHT30;63523;51.880;12.630;2023-02-28T04:53:38;-1.15;78.95
74968;SHT30;63523;51.880;12.630;2023-02-28T04:56:05;-1.07;78.98
74968;SHT30;63523;51.880;12.630;2023-02-28T04:58:31;-1.09;79.01
74968;SHT30;63523;51.880;12.630;2023-02-28T05:01:05;-1.24;78.97
74968;SHT30;63523;51.880;12.630;2023-02-28T05:03:41;-1.36;79.21
74968;SHT30;63523;51.880;12.630;2023-02-28T05:06:08;-1.45;79.48
74968;SHT30;63523;51.880;12.630;2023-02-28T05:08:33;-1.56;79.13
74968;SHT30;63523;51.880;12.630;2023-02-28T05:10:59;-1.68;79.46
74968;SHT30;63523;51.880;12.630;2023-02-28T05:13:26;-1.80;79.45
74968;SHT30;63523;51.880;12.630;2023-02-28T05:15:52;-1.88;79.50
74968;SHT30;63523;51.880;12.630;2023-02-28T05:18:18;-1.94;80.14
74968;SHT30;63523;51.880;12.630;2023-02-28T05:20:43;-1.95;80.43
74968;SHT30;63523;51.880;12.630;2023-02-28T05:23:11;-1.81;81.20
74968;SHT30;63523;51.880;12.630;2023-02-28T05:25:38;-1.73;80.59
74968;SHT30;63523;51.880;12.630;2023-02-28T05:28:04;-1.59;79.72
74968;SHT30;63523;51.880;12.630;2023-02-28T05:30:29;-1.52;79.50
74968;SHT30;63523;51.880;12.630;2023-02-28T05:32:57;-1.39;78.79
74968;SHT30;63523;51.880;12.630;2023-02-28T05:35:23;-1.29;78.59
74968;SHT30;63523;51.880;12.630;2023-02-28T05:37:49;-1.18;77.70
74968;SHT30;63523;51.880;12.630;2023-02-28T05:40:18;-1.08;77.29
74968;SHT30;63523;51.880;12.630;2023-02-28T05:42:45;-1.12;76.66
74968;SHT30;63523;51.880;12.630;2023-02-28T05:45:11;-1.12;76.51
74968;SHT30;63523;51.880;12.630;2023-02-28T05:47:37;-1.07;75.70
74968;SHT30;63523;51.880;12.630;2023-02-28T05:50:03;-1.04;75.06
74968;SHT30;63523;51.880;12.630;2023-02-28T05:52:29;-0.97;73.96
74968;SHT30;63523;51.880;12.630;2023-02-28T05:54:55;-0.81;72.70
74968;SHT30;63523;51.880;12.630;2023-02-28T05:57:21;-0.79;72.17
74968;SHT30;63523;51.880;12.630;2023-02-28T05:59:47;-0.74;71.82
74968;SHT30;63523;51.880;12.630;2023-02-28T06:02:14;-0.70;73.22
74968;SHT30;63523;51.880;12.630;2023-02-28T06:04:40;-0.73;74.16
74968;SHT30;63523;51.880;12.630;2023-02-28T06:07:06;-0.87;74.65
74968;SHT30;63523;51.880;12.630;2023-02-28T06:09:32;-0.90;74.59
74968;SHT30;63523;51.880;12.630;2023-02-28T06:11:59;-0.81;73.80
74968;SHT30;63523;51.880;12.630;2023-02-28T06:14:25;-0.67;72.37
74968;SHT30;63523;51.880;12.630;2023-02-28T06:16:50;-0.67;72.74
74968;SHT30;63523;51.880;12.630;2023-02-28T06:19:16;-0.69;71.86
74968;SHT30;63523;51.880;12.630;2023-02-28T06:21:42;-0.49;70.83
74968;SHT30;63523;51.880;12.630;2023-02-28T06:24:08;-0.32;70.36
74968;SHT30;63523;51.880;12.630;2023-02-28T06:26:34;-0.17;70.41
74968;SHT30;63523;51.880;12.630;2023-02-28T06:28:59;-0.10;69.30
74968;SHT30;63523;51.880;12.630;2023-02-28T06:31:26;0.05;69.22
74968;SHT30;63523;51.880;12.630;2023-02-28T06:33:54;0.17;69.73
74968;SHT30;63523;51.880;12.630;2023-02-28T06:36:19;0.33;69.02
74968;SHT30;63523;51.880;12.630;2023-02-28T06:38:45;0.38;68.87
74968;SHT30;63523;51.880;12.630;2023-02-28T06:41:10;0.50;68.92
74968;SHT30;63523;51.880;12.630;2023-02-28T06:43:41;0.61;68.83
74968;SHT30;63523;51.880;12.630;2023-02-28T06:46:08;0.72;68.15
74968;SHT30;63523;51.880;12.630;2023-02-28T06:48:34;0.82;66.94
74968;SHT30;63523;51.880;12.630;2023-02-28T06:51:04;0.82;66.72
74968;SHT30;63523;51.880;12.630;2023-02-28T06:53:30;0.83;67.07
74968;SHT30;63523;51.880;12.630;2023-02-28T06:55:56;0.93;66.22
74968;SHT30;63523;51.880;12.630;2023-02-28T06:58:22;0.99;66.81
74968;SHT30;63523;51.880;12.630;2023-02-28T07:00:51;0.97;65.82
74968;SHT30;63523;51.880;12.630;2023-02-28T07:03:17;1.03;66.24
74968;SHT30;63523;51.880;12.630;2023-02-28T07:05:44;1.12;65.72
74968;SHT30;63523;51.880;12.630;2023-02-28T07:08:10;1.20;65.49
74968;SHT30;63523;51.880;12.630;2023-02-28T07:10:38;1.23;63.47
74968;SHT30;63523;51.880;12.630;2023-02-28T07:13:05;1.30;63.75
74968;SHT30;63523;51.880;12.630;2023-02-28T07:15:31;1.35;64.25
74968;SHT30;63523;51.880;12.630;2023-02-28T07:17:56;1.41;64.47
74968;SHT30;63523;51.880;12.630;2023-02-28T07:20:23;1.42;63.85
74968;SHT30;63523;51.880;12.630;2023-02-28T07:22:49;1.48;64.05
74968;SHT30;63523;51.880;12.630;2023-02-28T07:25:26;1.56;64.63
74968;SHT30;63523;51.880;12.630;2023-02-28T07:27:53;1.63;64.31
74968;SHT30;63523;51.880;12.630;2023-02-28T07:30:19;1.68;63.33
74968;SHT30;63523;51.880;12.630;2023-02-28T07:32:45;1.75;64.04
74968;SHT30;63523;51.880;12.630;2023-02-28T07:35:10;1.90;62.85
74968;SHT30;63523;51.880;12.630;2023-02-28T07:37:36;2.02;59.62
74968;SHT30;63523;51.880;12.630;2023-02-28T07:40:06;2.10;60.95
74968;SHT30;63523;51.880;12.630;2023-02-28T07:42:41;2.16;59.23
74968;SHT30;63523;51.880;12.630;2023-02-28T07:45:07;2.20;59.90
74968;SHT30;63523;51.880;12.630;2023-02-28T07:47:33;2.30;58.58
74968;SHT30;63523;51.880;12.630;2023-02-28T07:49:59;2.44;57.29
74968;SHT30;63523;51.880;12.630;2023-02-28T07:52:25;2.42;57.49
74968;SHT30;63523;51.880;12.630;2023-02-28T07:54:51;2.51;56.91
74968;SHT30;63523;51.880;12.630;2023-02-28T07:57:19;2.55;59.02
74968;SHT30;63523;51.880;12.630;2023-02-28T07:59:45;2.61;57.74
74968;SHT30;63523;51.880;12.630;2023-02-28T08:02:15;2.62;57.29
74968;SHT30;63523;51.880;12.630;2023-02-28T08:04:40;2.72;57.20
74968;SHT30;63523;51.880;12.630;2023-02-28T08:07:06;2.85;57.51
74968;SHT30;63523;51.880;12.630;2023-02-28T08:09:32;2.99;55.81
74968;SHT30;63523;51.880;12.630;2023-02-28T08:11:58;3.06;56.28
74968;SHT30;63523;51.880;12.630;2023-02-28T08:14:23;3.20;55.27
74968;SHT30;63523;51.880;12.630;2023-02-28T08:16:49;3.18;55.79
74968;SHT30;63523;51.880;12.630;2023-02-28T08:19:14;3.35;53.64
74968;SHT30;63523;51.880;12.630;2023-02-28T08:21:40;3.38;54.81
74968;SHT30;63523;51.880;12.630;2023-02-28T08:24:06;3.44;53.05
74968;SHT30;63523;51.880;12.630;2023-02-28T08:26:31;3.39;52.80
74968;SHT30;63523;51.880;12.630;2023-02-28T08:28:57;3.48;53.18
74968;SHT30;63523;51.880;12.630;2023-02-28T08:31:22;3.62;53.90
74968;SHT30;63523;51.880;12.630;2023-02-28T08:33:48;3.90;50.69
74968;SHT30;63523;51.880;12.630;2023-02-28T08:36:16;3.90;50.64
74968;SHT30;63523;51.880;12.630;2023-02-28T08:38:42;3.94;50.88
74968;SHT30;63523;51.880;12.630;2023-02-28T08:41:11;4.07;49.80
74968;SHT30;63523;51.880;12.630;2023-02-28T08:43:37;4.17;49.56
74968;SHT30;63523;51.880;12.630;2023-02-28T08:46:04;4.37;47.79
74968;SHT30;63523;51.880;12.630;2023-02-28T08:48:32;4.30;49.63
74968;SHT30;63523;51.880;12.630;2023-02-28T08:51:00;4.30;48.82
74968;SHT30;63523;51.880;12.630;2023-02-28T08:53:26;4.20;49.67
74968;SHT30;63523;51.880;12.630;2023-02-28T08:56:19;4.28;46.80
74968;SHT30;63523;51.880;12.630;2023-02-28T08:58:45;4.25;47.33
74968;SHT30;63523;51.880;12.630;2023-02-28T09:01:19;4.44;46.53
74968;SHT30;63523;51.880;12.630;2023-02-28T09:03:46;4.44;47.03
74968;SHT30;63523;51.880;12.630;2023-02-28T09:06:14;4.56;47.82
74968;SHT30;63523;51.880;12.630;2023-02-28T09:08:40;4.46;48.24
74968;SHT30;63523;51.880;12.630;2023-02-28T09:11:06;4.45;45.82
74968;SHT30;63523;51.880;12.630;2023-02-28T09:13:32;4.69;42.39
74968;SHT30;63523;51.880;12.630;2023-02-28T09:16:00;4.83;44.97
74968;SHT30;63523;51.880;12.630;2023-02-28T09:18:26;4.91;44.31
74968;SHT30;63523;51.880;12.630;2023-02-28T09:20:52;4.69;44.55
74968;SHT30;63523;51.880;12.630;2023-02-28T09:23:18;4.86;44.73
74968;SHT30;63523;51.880;12.630;2023-02-28T09:25:48;5.03;44.10
74968;SHT30;63523;51.880;12.630;2023-02-28T09:28:15;4.89;44.37
74968;SHT30;63523;51.880;12.630;2023-02-28T09:30:41;4.97;43.86
74968;SHT30;63523;51.880;12.630;2023-02-28T09:33:07;5.15;41.38
74968;SHT30;63523;51.880;12.630;2023-02-28T09:35:33;5.20;44.75
74968;SHT30;63523;51.880;12.630;2023-02-28T09:37:58;5.00;42.93
74968;SHT30;63523;51.880;12.630;2023-02-28T09:40:25;5.01;43.40
74968;SHT30;63523;51.880;12.630;2023-02-28T09:42:53;5.23;42.84
74968;SHT30;63523;51.880;12.630;2023-02-28T09:45:24;5.28;42.42
74968;SHT30;63523;51.880;12.630;2023-02-28T09:47:54;5.56;42.56
74968;SHT30;63523;51.880;12.630;2023-02-28T09:50:38;5.58;43.31
74968;SHT30;63523;51.880;12.630;2023-02-28T09:53:28;5.77;42.20
74968;SHT30;63523;51.880;12.630;2023-02-28T09:56:02;5.83;41.19
74968;SHT30;63523;51.880;12.630;2023-02-28T09:58:48;6.00;40.54
74968;SHT30;63523;51.880;12.630;2023-02-28T10:01:31;5.89;42.01
74968;SHT30;63523;51.880;12.630;2023-02-28T10:04:35;5.97;40.96
74968;SHT30;63523;51.880;12.630;2023-02-28T10:07:52;5.97;40.88
74968;SHT30;63523;51.880;12.630;2023-02-28T10:09:55;5.94;40.88
74968;SHT30;63523;51.880;12.630;2023-02-28T10:12:22;5.74;41.41
74968;SHT30;63523;51.880;12.630;2023-02-28T10:14:51;5.83;42.54
74968;SHT30;63523;51.880;12.630;2023-02-28T10:17:21;5.91;41.18
74968;SHT30;63523;51.880;12.630;2023-02-28T10:22:21;6.07;40.13
74968;SHT30;63523;51.880;12.630;2023-02-28T10:24:51;5.94;42.35
74968;SHT30;63523;51.880;12.630;2023-02-28T10:27:22;5.97;40.62
74968;SHT30;63523;51.880;12.630;2023-02-28T10:29:51;6.20;41.52
74968;SHT30;63523;51.880;12.630;2023-02-28T10:32:22;6.35;40.94
74968;SHT30;63523;51.880;12.630;2023-02-28T10:34:56;6.34;41.26
74968;SHT30;63523;51.880;12.630;2023-02-28T10:37:23;6.38;39.94
74968;SHT30;63523;51.880;12.630;2023-02-28T10:39:48;6.38;40.86
74968;SHT30;63523;51.880;12.630;2023-02-28T10:42:23;6.34;41.91
74968;SHT30;63523;51.880;12.630;2023-02-28T10:45:13;6.41;41.73
74968;SHT30;63523;51.880;12.630;2023-02-28T10:56:20;7.08;39.21
74968;SHT30;63523;51.880;12.630;2023-02-28T10:59:08;7.38;39.66
74968;SHT30;63523;51.880;12.630;2023-02-28T11:01:47;7.59;40.03
74968;SHT30;63523;51.880;12.630;2023-02-28T11:06:59;7.65;38.45
74968;SHT30;63523;51.880;12.630;2023-02-28T11:09:31;7.70;37.58
74968;SHT30;63523;51.880;12.630;2023-02-28T11:11:58;7.41;37.46
74968;SHT30;63523;51.880;12.630;2023-02-28T11:14:46;7.28;36.96
74968;SHT30;63523;51.880;12.630;2023-02-28T11:17:18;7.24;38.28
74968;SHT30;63523;51.880;12.630;2023-02-28T11:19:46;7.41;38.47
74968;SHT30;63523;51.880;12.630;2023-02-28T11:22:20;7.31;38.37
74968;SHT30;63523;51.880;12.630;2023-02-28T11:24:51;7.21;41.83
74968;SHT30;63523;51.880;12.630;2023-02-28T11:29:55;7.11;38.95
74968;SHT30;63523;51.880;12.630;2023-02-28T11:32:23;6.88;39.98
74968;SHT30;63523;51.880;12.630;2023-02-28T11:37:38;6.29;43.33
74968;SHT30;63523;51.880;12.630;2023-02-28T11:40:15;6.24;41.35
74968;SHT30;63523;51.880;12.630;2023-02-28T11:48:20;5.85;42.72
74968;SHT30;63523;51.880;12.630;2023-02-28T11:51:06;5.90;43.76
74968;SHT30;63523;51.880;12.630;2023-02-28T11:56:32;5.94;45.66
74968;SHT30;63523;51.880;12.630;2023-02-28T12:01:37;5.67;43.95
74968;SHT30;63523;51.880;12.630;2023-02-28T12:09:59;5.63;48.09
74968;SHT30;63523;51.880;12.630;2023-02-28T12:26:32;5.45;45.97
74968;SHT30;63523;51.880;12.630;2023-02-28T12:29:19;5.56;45.93
74968;SHT30;63523;51.880;12.630;2023-02-28T12:32:19;5.59;43.75
74968;SHT30;63523;51.880;12.630;2023-02-28T12:34:55;5.41;43.31
74968;SHT30;63523;51.880;12.630;2023-02-28T12:37:29;5.60;46.44
74968;SHT30;63523;51.880;12.630;2023-02-28T12:40:01;5.66;43.22
74968;SHT30;63523;51.880;12.630;2023-02-28T12:42:39;5.39;45.37
74968;SHT30;63523;51.880;12.630;2023-02-28T12:45:17;5.36;44.43
74968;SHT30;63523;51.880;12.630;2023-02-28T12:47:45;5.45;45.10
74968;SHT30;63523;51.880;12.630;2023-02-28T12:50:12;5.63;45.90
74968;SHT30;63523;51.880;12.630;2023-02-28T12:52:58;5.69;45.78
74968;SHT30;63523;51.880;12.630;2023-02-28T13:13:57;5.74;45.66
74968;SHT30;63523;51.880;12.630;2023-02-28T13:16:23;5.65;44.67
74968;SHT30;63523;51.880;12.630;2023-02-28T13:18:49;5.80;44.85
74968;SHT30;63523;51.880;12.630;2023-02-28T13:21:28;5.77;45.53
74968;SHT30;63523;51.880;12.630;2023-02-28T13:29:00;5.70;45.07
74968;SHT30;63523;51.880;12.630;2023-02-28T13:31:26;5.65;44.55
74968;SHT30;63523;51.880;12.630;2023-02-28T13:36:29;6.08;44.65
74968;SHT30;63523;51.880;12.630;2023-02-28T13:39:01;5.86;45.94
74968;SHT30;63523;51.880;12.630;2023-02-28T13:46:29;5.94;45.86
74968;SHT30;63523;51.880;12.630;2023-02-28T13:48:54;5.90;44.37
74968;SHT30;63523;51.880;12.630;2023-02-28T13:51:47;5.76;44.68
74968;SHT30;63523;51.880;12.630;2023-02-28T14:03:14;5.89;44.70
74968;SHT30;63523;51.880;12.630;2023-02-28T14:05:43;5.74;45.51
74968;SHT30;63523;51.880;12.630;2023-02-28T14:08:18;5.80;44.87
74968;SHT30;63523;51.880;12.630;2023-02-28T14:10:51;5.71;45.40
74968;SHT30;63523;51.880;12.630;2023-02-28T14:13:45;5.85;45.13
74968;SHT30;63523;51.880;12.630;2023-02-28T14:16:20;5.71;45.29
74968;SHT30;63523;51.880;12.630;2023-02-28T14:19:01;5.77;44.67
74968;SHT30;63523;51.880;12.630;2023-02-28T14:21:35;5.79;45.80
74968;SHT30;63523;51.880;12.630;2023-02-28T14:32:35;5.73;45.45
74968;SHT30;63523;51.880;12.630;2023-02-28T14:38:26;5.53;46.06
74968;SHT30;63523;51.880;12.630;2023-02-28T14:40:55;5.65;48.95
74968;SHT30;63523;51.880;12.630;2023-02-28T14:43:25;5.62;46.97
74968;SHT30;63523;51.880;12.630;2023-02-28T14:45:55;5.63;46.18
74968;SHT30;63523;51.880;12.630;2023-02-28T14:48:22;5.62;46.95
74968;SHT30;63523;51.880;12.630;2023-02-28T14:50:55;5.65;46.17
74968;SHT30;63523;51.880;12.630;2023-02-28T14:53:24;5.60;47.80
74968;SHT30;63523;51.880;12.630;2023-02-28T14:55:51;5.71;47.33
74968;SHT30;63523;51.880;12.630;2023-02-28T14:58:31;5.60;45.80
74968;SHT30;63523;51.880;12.630;2023-02-28T15:00:59;5.53;45.33
74968;SHT30;63523;51.880;12.630;2023-02-28T15:03:35;5.66;45.98
74968;SHT30;63523;51.880;12.630;2023-02-28T15:06:11;5.70;48.41
74968;SHT30;63523;51.880;12.630;2023-02-28T15:08:37;5.69;46.95
74968;SHT30;63523;51.880;12.630;2023-02-28T15:11:23;5.66;46.93
74968;SHT30;63523;51.880;12.630;2023-02-28T15:13:53;5.59;46.42
74968;SHT30;63523;51.880;12.630;2023-02-28T15:16:24;5.62;47.07
74968;SHT30;63523;51.880;12.630;2023-02-28T15:18:54;5.58;47.04
74968;SHT30;63523;51.880;12.630;2023-02-28T15:23:58;5.59;46.62
74968;SHT30;63523;51.880;12.630;2023-02-28T15:26:32;5.58;47.33
74968;SHT30;63523;51.880;12.630;2023-02-28T15:29:06;5.52;47.54
74968;SHT30;63523;51.880;12.630;2023-02-28T15:31:34;5.49;48.99
74968;SHT30;63523;51.880;12.630;2023-02-28T15:34:05;5.67;46.65
74968;SHT30;63523;51.880;12.630;2023-02-28T15:36:34;5.62;46.60
74968;SHT30;63523;51.880;12.630;2023-02-28T15:39:16;5.39;47.93
74968;SHT30;63523;51.880;12.630;2023-02-28T15:41:43;5.42;47.45
74968;SHT30;63523;51.880;12.630;2023-02-28T15:44:26;5.38;47.96
74968;SHT30;63523;51.880;12.630;2023-02-28T15:47:00;5.43;46.80
74968;SHT30;63523;51.880;12.630;2023-02-28T15:49:27;5.46;45.75
74968;SHT30;63523;51.880;12.630;2023-02-28T15:51:56;5.49;45.73
74968;SHT30;63523;51.880;12.630;2023-02-28T15:54:28;5.52;45.29
74968;SHT30;63523;51.880;12.630;2023-02-28T15:56:56;5.36;46.22
74968;SHT30;63523;51.880;12.630;2023-02-28T15:59:28;5.38;46.70
74968;SHT30;63523;51.880;12.630;2023-02-28T16:02:04;5.24;47.92
74968;SHT30;63523;51.880;12.630;2023-02-28T16:04:37;5.21;47.83
74968;SHT30;63523;51.880;12.630;2023-02-28T16:07:04;5.07;49.48
74968;SHT30;63523;51.880;12.630;2023-02-28T16:09:31;4.91;50.49
74968;SHT30;63523;51.880;12.630;2023-02-28T16:12:00;4.94;48.26
74968;SHT30;63523;51.880;12.630;2023-02-28T16:14:31;4.83;48.51
74968;SHT30;63523;51.880;12.630;2023-02-28T16:17:08;4.86;49.12
74968;SHT30;63523;51.880;12.630;2023-02-28T16:19:39;4.93;47.91
74968;SHT30;63523;51.880;12.630;2023-02-28T16:22:04;4.83;48.46
74968;SHT30;63523;51.880;12.630;2023-02-28T16:24:30;4.76;47.82
74968;SHT30;63523;51.880;12.630;2023-02-28T16:26:56;4.73;48.30
74968;SHT30;63523;51.880;12.630;2023-02-28T16:29:41;4.69;48.70
74968;SHT30;63523;51.880;12.630;2023-02-28T16:32:07;4.56;50.01
74968;SHT30;63523;51.880;12.630;2023-02-28T16:34:32;4.46;51.26
74968;SHT30;63523;51.880;12.630;2023-02-28T16:36:58;4.34;52.05
74968;SHT30;63523;51.880;12.630;2023-02-28T16:39:24;4.20;51.85
74968;SHT30;63523;51.880;12.630;2023-02-28T16:41:50;4.07;51.73
74968;SHT30;63523;51.880;12.630;2023-02-28T16:44:28;3.90;52.66
74968;SHT30;63523;51.880;12.630;2023-02-28T16:46:54;3.80;54.04
74968;SHT30;63523;51.880;12.630;2023-02-28T16:49:19;3.75;56.11
74968;SHT30;63523;51.880;12.630;2023-02-28T16:51:46;3.66;55.60
74968;SHT30;63523;51.880;12.630;2023-02-28T16:54:11;3.59;56.73
74968;SHT30;63523;51.880;12.630;2023-02-28T16:56:40;3.48;58.94
74968;SHT30;63523;51.880;12.630;2023-02-28T16:59:08;3.21;61.84
74968;SHT30;63523;51.880;12.630;2023-02-28T17:01:34;2.96;62.56
74968;SHT30;63523;51.880;12.630;2023-02-28T17:04:00;2.76;63.85
74968;SHT30;63523;51.880;12.630;2023-02-28T17:06:27;2.62;64.36
74968;SHT30;63523;51.880;12.630;2023-02-28T17:08:54;2.40;65.57
74968;SHT30;63523;51.880;12.630;2023-02-28T17:11:20;2.21;65.37
74968;SHT30;63523;51.880;12.630;2023-02-28T17:13:46;2.03;66.78
74968;SHT30;63523;51.880;12.630;2023-02-28T17:16:29;1.86;67.43
74968;SHT30;63523;51.880;12.630;2023-02-28T17:19:02;1.76;67.59
74968;SHT30;63523;51.880;12.630;2023-02-28T17:21:29;1.66;66.65
74968;SHT30;63523;51.880;12.630;2023-02-28T17:23:55;1.54;67.26
74968;SHT30;63523;51.880;12.630;2023-02-28T17:26:21;1.41;67.31
74968;SHT30;63523;51.880;12.630;2023-02-28T17:28:51;1.24;68.23
74968;SHT30;63523;51.880;12.630;2023-02-28T17:31:17;1.14;69.48
74968;SHT30;63523;51.880;12.630;2023-02-28T17:33:43;0.95;69.80
74968;SHT30;63523;51.880;12.630;2023-02-28T17:36:22;0.78;70.17
74968;SHT30;63523;51.880;12.630;2023-02-28T17:38:49;0.65;70.36
74968;SHT30;63523;51.880;12.630;2023-02-28T17:41:15;0.50;70.86
74968;SHT30;63523;51.880;12.630;2023-02-28T17:43:41;0.28;71.92
74968;SHT30;63523;51.880;12.630;2023-02-28T17:46:16;0.13;72.79
74968;SHT30;63523;51.880;12.630;2023-02-28T17:48:43;0.02;73.18
74968;SHT30;63523;51.880;12.630;2023-02-28T17:51:12;-0.12;74.17
74968;SHT30;63523;51.880;12.630;2023-02-28T17:53:38;-0.25;75.15
74968;SHT30;63523;51.880;12.630;2023-02-28T17:56:04;-0.28;75.72
74968;SHT30;63523;51.880;12.630;2023-02-28T17:58:30;-0.29;75.50